sensor_id;sensor_type;location;lat;lon;timestamp;P1;durP1;ratioP1;P2;durP2;ratioP2
29940;SDS011;16801;53.562;10.038;2023-05-19T00:01:36;2.10;;;1.73;;
29940;SDS011;16801;53.562;10.038;2023-05-19T00:04:58;2.60;;;2.40;;
29940;SDS011;16801;53.562;10.038;2023-05-19T00:08:20;2.97;;;2.17;;
29940;SDS011;16801;53.562;10.038;2023-05-19T00:11:43;3.77;;;3.37;;
29940;SDS011;16801;53.562;10.038;2023-05-19T00:15:06;3.97;;;2.63;;
29940;SDS011;16801;53.562;10.038;2023-05-19T00:18:29;4.33;;;2.87;;
29940;SDS011;16801;53.562;10.038;2023-05-19T00:21:49;3.60;;;3.30;;
29940;SDS011;16801;53.562;10.038;2023-05-19T00:25:10;7.10;;;2.57;;
29940;SDS011;16801;53.562;10.038;2023-05-19T00:28:31;5.10;;;2.57;;
29940;SDS011;16801;53.562;10.038;2023-05-19T00:31:53;2.80;;;2.60;;
29940;SDS011;16801;53.562;10.038;2023-05-19T00:35:14;2.80;;;2.57;;
29940;SDS011;16801;53.562;10.038;2023-05-19T00:38:36;2.90;;;2.13;;
29940;SDS011;16801;53.562;10.038;2023-05-19T00:41:57;2.70;;;2.47;;
29940;SDS011;16801;53.562;10.038;2023-05-19T00:45:18;3.60;;;2.60;;
29940;SDS011;16801;53.562;10.038;2023-05-19T00:48:41;4.23;;;2.40;;
29940;SDS011;16801;53.562;10.038;2023-05-19T00:52:03;4.10;;;2.67;;
29940;SDS011;16801;53.562;10.038;2023-05-19T00:55:27;9.90;;;3.07;;
29940;SDS011;16801;53.562;10.038;2023-05-19T00:58:50;4.80;;;3.40;;
29940;SDS011;16801;53.562;10.038;2023-05-19T01:02:11;6.97;;;2.97;;
29940;SDS011;16801;53.562;10.038;2023-05-19T01:05:34;5.77;;;2.67;;
29940;SDS011;16801;53.562;10.038;2023-05-19T01:08:55;2.13;;;1.90;;
29940;SDS011;16801;53.562;10.038;2023-05-19T01:12:16;2.97;;;2.60;;
29940;SDS011;16801;53.562;10.038;2023-05-19T01:15:38;3.90;;;2.90;;
29940;SDS011;16801;53.562;10.038;2023-05-19T01:19:13;2.00;;;1.73;;
29940;SDS011;16801;53.562;10.038;2023-05-19T01:26:46;2.33;;;2.13;;
29940;SDS011;16801;53.562;10.038;2023-05-19T01:30:23;2.20;;;2.00;;
29940;SDS011;16801;53.562;10.038;2023-05-19T01:33:47;4.70;;;2.30;;
29940;SDS011;16801;53.562;10.038;2023-05-19T01:37:08;1.93;;;1.60;;
29940;SDS011;16801;53.562;10.038;2023-05-19T01:40:32;3.07;;;1.47;;
29940;SDS011;16801;53.562;10.038;2023-05-19T01:43:53;3.17;;;2.30;;
29940;SDS011;16801;53.562;10.038;2023-05-19T01:47:16;2.47;;;2.20;;
29940;SDS011;16801;53.562;10.038;2023-05-19T01:50:37;3.40;;;2.93;;
29940;SDS011;16801;53.562;10.038;2023-05-19T01:53:58;4.30;;;1.87;;
29940;SDS011;16801;53.562;10.038;2023-05-19T01:57:23;4.13;;;2.10;;
29940;SDS011;16801;53.562;10.038;2023-05-19T02:00:52;1.77;;;1.43;;
29940;SDS011;16801;53.562;10.038;2023-05-19T02:04:21;3.00;;;1.90;;
29940;SDS011;16801;53.562;10.038;2023-05-19T02:07:51;4.00;;;2.30;;
29940;SDS011;16801;53.562;10.038;2023-05-19T02:11:18;2.53;;;2.30;;
29940;SDS011;16801;53.562;10.038;2023-05-19T02:14:47;2.33;;;2.10;;
29940;SDS011;16801;53.562;10.038;2023-05-19T02:18:12;2.97;;;2.07;;
29940;SDS011;16801;53.562;10.038;2023-05-19T02:21:38;5.67;;;3.03;;
29940;SDS011;16801;53.562;10.038;2023-05-19T02:24:59;3.67;;;2.60;;
29940;SDS011;16801;53.562;10.038;2023-05-19T02:28:20;3.50;;;3.20;;
29940;SDS011;16801;53.562;10.038;2023-05-19T02:31:41;2.70;;;1.97;;
29940;SDS011;16801;53.562;10.038;2023-05-19T02:35:03;3.80;;;1.90;;
29940;SDS011;16801;53.562;10.038;2023-05-19T02:38:25;7.20;;;2.30;;
29940;SDS011;16801;53.562;10.038;2023-05-19T02:41:46;3.37;;;2.17;;
29940;SDS011;16801;53.562;10.038;2023-05-19T02:45:07;2.30;;;2.10;;
29940;SDS011;16801;53.562;10.038;2023-05-19T02:48:28;3.07;;;2.20;;
29940;SDS011;16801;53.562;10.038;2023-05-19T02:51:49;3.27;;;1.93;;
29940;SDS011;16801;53.562;10.038;2023-05-19T02:55:11;1.90;;;1.80;;
29940;SDS011;16801;53.562;10.038;2023-05-19T02:58:35;2.97;;;2.00;;
29940;SDS011;16801;53.562;10.038;2023-05-19T03:01:58;3.10;;;1.93;;
29940;SDS011;16801;53.562;10.038;2023-05-19T03:05:20;1.97;;;1.80;;
29940;SDS011;16801;53.562;10.038;2023-05-19T03:08:41;2.87;;;2.67;;
29940;SDS011;16801;53.562;10.038;2023-05-19T03:12:03;2.10;;;1.90;;
29940;SDS011;16801;53.562;10.038;2023-05-19T03:15:26;6.20;;;1.80;;
29940;SDS011;16801;53.562;10.038;2023-05-19T03:18:47;2.67;;;2.47;;
29940;SDS011;16801;53.562;10.038;2023-05-19T03:22:07;4.03;;;1.83;;
29940;SDS011;16801;53.562;10.038;2023-05-19T03:25:28;4.90;;;2.33;;
29940;SDS011;16801;53.562;10.038;2023-05-19T03:28:51;3.37;;;1.90;;
29940;SDS011;16801;53.562;10.038;2023-05-19T03:32:12;2.93;;;1.80;;
29940;SDS011;16801;53.562;10.038;2023-05-19T03:35:34;3.33;;;3.10;;
29940;SDS011;16801;53.562;10.038;2023-05-19T03:38:54;5.93;;;1.77;;
29940;SDS011;16801;53.562;10.038;2023-05-19T03:42:15;3.80;;;2.07;;
29940;SDS011;16801;53.562;10.038;2023-05-19T03:45:38;3.87;;;2.27;;
29940;SDS011;16801;53.562;10.038;2023-05-19T03:49:18;5.60;;;2.53;;
29940;SDS011;16801;53.562;10.038;2023-05-19T03:52:58;4.37;;;2.90;;
29940;SDS011;16801;53.562;10.038;2023-05-19T03:56:21;3.40;;;2.50;;
29940;SDS011;16801;53.562;10.038;2023-05-19T03:59:45;3.57;;;2.60;;
29940;SDS011;16801;53.562;10.038;2023-05-19T04:03:07;5.67;;;3.70;;
29940;SDS011;16801;53.562;10.038;2023-05-19T04:06:28;7.33;;;3.00;;
29940;SDS011;16801;53.562;10.038;2023-05-19T04:09:50;2.83;;;2.40;;
29940;SDS011;16801;53.562;10.038;2023-05-19T04:13:10;3.47;;;2.63;;
29940;SDS011;16801;53.562;10.038;2023-05-19T04:16:31;3.43;;;2.57;;
29940;SDS011;16801;53.562;10.038;2023-05-19T04:19:53;3.47;;;2.13;;
29940;SDS011;16801;53.562;10.038;2023-05-19T04:23:14;8.87;;;3.40;;
29940;SDS011;16801;53.562;10.038;2023-05-19T04:26:36;2.10;;;2.00;;
29940;SDS011;16801;53.562;10.038;2023-05-19T04:30:00;6.57;;;3.33;;
29940;SDS011;16801;53.562;10.038;2023-05-19T04:33:22;3.50;;;3.27;;
29940;SDS011;16801;53.562;10.038;2023-05-19T04:36:45;6.63;;;2.33;;
29940;SDS011;16801;53.562;10.038;2023-05-19T04:40:07;2.87;;;2.63;;
29940;SDS011;16801;53.562;10.038;2023-05-19T04:43:29;4.60;;;2.80;;
29940;SDS011;16801;53.562;10.038;2023-05-19T04:46:50;4.33;;;2.47;;
29940;SDS011;16801;53.562;10.038;2023-05-19T04:50:13;5.63;;;3.00;;
29940;SDS011;16801;53.562;10.038;2023-05-19T04:53:36;2.87;;;2.40;;
29940;SDS011;16801;53.562;10.038;2023-05-19T04:57:00;3.77;;;2.30;;
29940;SDS011;16801;53.562;10.038;2023-05-19T05:00:23;4.40;;;2.30;;
29940;SDS011;16801;53.562;10.038;2023-05-19T05:03:51;5.43;;;3.03;;
29940;SDS011;16801;53.562;10.038;2023-05-19T05:07:13;3.87;;;2.30;;
29940;SDS011;16801;53.562;10.038;2023-05-19T05:10:36;3.53;;;2.30;;
29940;SDS011;16801;53.562;10.038;2023-05-19T05:13:58;2.93;;;2.73;;
29940;SDS011;16801;53.562;10.038;2023-05-19T05:17:22;3.43;;;1.73;;
29940;SDS011;16801;53.562;10.038;2023-05-19T05:20:44;2.07;;;1.87;;
29940;SDS011;16801;53.562;10.038;2023-05-19T05:24:07;2.43;;;2.33;;
29940;SDS011;16801;53.562;10.038;2023-05-19T05:27:31;2.10;;;1.70;;
29940;SDS011;16801;53.562;10.038;2023-05-19T05:30:52;3.57;;;2.77;;
29940;SDS011;16801;53.562;10.038;2023-05-19T05:34:14;4.63;;;2.37;;
29940;SDS011;16801;53.562;10.038;2023-05-19T05:37:36;4.40;;;2.47;;
29940;SDS011;16801;53.562;10.038;2023-05-19T05:40:56;4.43;;;1.87;;
29940;SDS011;16801;53.562;10.038;2023-05-19T05:44:19;1.77;;;1.67;;
29940;SDS011;16801;53.562;10.038;2023-05-19T05:47:40;5.53;;;2.20;;
29940;SDS011;16801;53.562;10.038;2023-05-19T05:51:02;3.67;;;2.80;;
29940;SDS011;16801;53.562;10.038;2023-05-19T05:54:25;4.27;;;2.70;;
29940;SDS011;16801;53.562;10.038;2023-05-19T05:57:46;3.53;;;2.63;;
29940;SDS011;16801;53.562;10.038;2023-05-19T06:01:09;3.33;;;2.90;;
29940;SDS011;16801;53.562;10.038;2023-05-19T06:04:31;2.80;;;2.57;;
29940;SDS011;16801;53.562;10.038;2023-05-19T06:07:51;3.70;;;2.07;;
29940;SDS011;16801;53.562;10.038;2023-05-19T06:11:16;2.30;;;1.90;;
29940;SDS011;16801;53.562;10.038;2023-05-19T06:14:38;5.27;;;2.53;;
29940;SDS011;16801;53.562;10.038;2023-05-19T06:18:23;2.73;;;1.67;;
29940;SDS011;16801;53.562;10.038;2023-05-19T06:21:45;5.10;;;2.17;;
29940;SDS011;16801;53.562;10.038;2023-05-19T06:25:07;3.73;;;2.80;;
29940;SDS011;16801;53.562;10.038;2023-05-19T06:28:29;2.40;;;2.13;;
29940;SDS011;16801;53.562;10.038;2023-05-19T06:31:50;1.60;;;1.50;;
29940;SDS011;16801;53.562;10.038;2023-05-19T06:35:12;2.20;;;1.73;;
29940;SDS011;16801;53.562;10.038;2023-05-19T06:38:33;2.07;;;1.83;;
29940;SDS011;16801;53.562;10.038;2023-05-19T06:41:55;3.80;;;1.93;;
29940;SDS011;16801;53.562;10.038;2023-05-19T06:45:35;2.13;;;1.67;;
29940;SDS011;16801;53.562;10.038;2023-05-19T06:48:57;3.87;;;1.53;;
29940;SDS011;16801;53.562;10.038;2023-05-19T06:52:22;2.57;;;2.13;;
29940;SDS011;16801;53.562;10.038;2023-05-19T06:55:43;7.37;;;1.53;;
29940;SDS011;16801;53.562;10.038;2023-05-19T06:59:05;4.53;;;1.87;;
29940;SDS011;16801;53.562;10.038;2023-05-19T07:02:29;4.20;;;1.43;;
29940;SDS011;16801;53.562;10.038;2023-05-19T07:05:50;4.43;;;2.30;;
29940;SDS011;16801;53.562;10.038;2023-05-19T07:09:12;2.63;;;2.43;;
29940;SDS011;16801;53.562;10.038;2023-05-19T07:12:33;6.70;;;2.53;;
29940;SDS011;16801;53.562;10.038;2023-05-19T07:15:54;2.87;;;1.43;;
29940;SDS011;16801;53.562;10.038;2023-05-19T07:19:16;6.00;;;2.80;;
29940;SDS011;16801;53.562;10.038;2023-05-19T07:22:38;8.50;;;4.10;;
29940;SDS011;16801;53.562;10.038;2023-05-19T07:26:01;4.30;;;2.27;;
29940;SDS011;16801;53.562;10.038;2023-05-19T07:29:22;6.60;;;2.83;;
29940;SDS011;16801;53.562;10.038;2023-05-19T07:32:42;4.30;;;2.00;;
29940;SDS011;16801;53.562;10.038;2023-05-19T07:36:03;2.63;;;1.83;;
29940;SDS011;16801;53.562;10.038;2023-05-19T07:39:25;2.57;;;1.43;;
29940;SDS011;16801;53.562;10.038;2023-05-19T07:42:49;2.03;;;1.90;;
29940;SDS011;16801;53.562;10.038;2023-05-19T07:46:10;4.43;;;1.83;;
29940;SDS011;16801;53.562;10.038;2023-05-19T07:49:31;2.10;;;1.90;;
29940;SDS011;16801;53.562;10.038;2023-05-19T07:52:51;4.40;;;2.07;;
29940;SDS011;16801;53.562;10.038;2023-05-19T07:56:12;1.50;;;1.40;;
29940;SDS011;16801;53.562;10.038;2023-05-19T07:59:34;3.20;;;1.80;;
29940;SDS011;16801;53.562;10.038;2023-05-19T08:02:55;4.40;;;2.20;;
29940;SDS011;16801;53.562;10.038;2023-05-19T08:06:16;3.03;;;1.70;;
29940;SDS011;16801;53.562;10.038;2023-05-19T08:09:37;3.40;;;1.93;;
29940;SDS011;16801;53.562;10.038;2023-05-19T08:12:58;3.67;;;1.63;;
29940;SDS011;16801;53.562;10.038;2023-05-19T08:16:20;3.87;;;1.93;;
29940;SDS011;16801;53.562;10.038;2023-05-19T08:19:41;3.40;;;1.80;;
29940;SDS011;16801;53.562;10.038;2023-05-19T08:23:02;4.87;;;2.40;;
29940;SDS011;16801;53.562;10.038;2023-05-19T08:26:23;1.63;;;1.53;;
29940;SDS011;16801;53.562;10.038;2023-05-19T08:29:44;4.93;;;1.97;;
29940;SDS011;16801;53.562;10.038;2023-05-19T08:33:06;2.33;;;1.73;;
29940;SDS011;16801;53.562;10.038;2023-05-19T08:36:27;3.10;;;1.67;;
29940;SDS011;16801;53.562;10.038;2023-05-19T08:39:48;2.57;;;1.20;;
29940;SDS011;16801;53.562;10.038;2023-05-19T08:43:09;3.87;;;2.13;;
29940;SDS011;16801;53.562;10.038;2023-05-19T08:46:31;2.57;;;1.67;;
29940;SDS011;16801;53.562;10.038;2023-05-19T08:49:54;5.30;;;1.93;;
29940;SDS011;16801;53.562;10.038;2023-05-19T08:53:26;5.10;;;2.47;;
29940;SDS011;16801;53.562;10.038;2023-05-19T08:56:52;7.05;;;3.08;;
29940;SDS011;16801;53.562;10.038;2023-05-19T09:00:13;1.60;;;1.20;;
29940;SDS011;16801;53.562;10.038;2023-05-19T09:03:35;1.93;;;1.73;;
29940;SDS011;16801;53.562;10.038;2023-05-19T09:06:59;5.82;;;2.08;;
29940;SDS011;16801;53.562;10.038;2023-05-19T09:10:22;2.60;;;2.00;;
29940;SDS011;16801;53.562;10.038;2023-05-19T09:13:43;4.70;;;1.90;;
29940;SDS011;16801;53.562;10.038;2023-05-19T09:17:04;2.58;;;1.33;;
29940;SDS011;16801;53.562;10.038;2023-05-19T09:20:29;3.03;;;1.48;;
29940;SDS011;16801;53.562;10.038;2023-05-19T09:23:51;2.13;;;1.67;;
29940;SDS011;16801;53.562;10.038;2023-05-19T09:27:13;3.47;;;1.00;;
29940;SDS011;16801;53.562;10.038;2023-05-19T09:30:40;2.38;;;1.85;;
29940;SDS011;16801;53.562;10.038;2023-05-19T09:34:01;2.85;;;1.10;;
29940;SDS011;16801;53.562;10.038;2023-05-19T09:37:22;3.58;;;0.90;;
29940;SDS011;16801;53.562;10.038;2023-05-19T09:40:45;3.40;;;1.63;;
29940;SDS011;16801;53.562;10.038;2023-05-19T09:44:11;4.80;;;1.73;;
29940;SDS011;16801;53.562;10.038;2023-05-19T09:47:32;3.17;;;1.92;;
29940;SDS011;16801;53.562;10.038;2023-05-19T09:50:54;5.40;;;1.83;;
29940;SDS011;16801;53.562;10.038;2023-05-19T09:54:16;3.47;;;1.90;;
29940;SDS011;16801;53.562;10.038;2023-05-19T09:57:40;7.03;;;1.27;;
29940;SDS011;16801;53.562;10.038;2023-05-19T10:01:04;2.40;;;1.40;;
29940;SDS011;16801;53.562;10.038;2023-05-19T10:04:26;2.58;;;1.98;;
29940;SDS011;16801;53.562;10.038;2023-05-19T10:07:49;1.75;;;1.65;;
29940;SDS011;16801;53.562;10.038;2023-05-19T10:11:12;2.35;;;2.03;;
29940;SDS011;16801;53.562;10.038;2023-05-19T10:14:37;2.08;;;1.00;;
29940;SDS011;16801;53.562;10.038;2023-05-19T10:17:59;1.98;;;1.65;;
29940;SDS011;16801;53.562;10.038;2023-05-19T10:21:23;1.23;;;0.88;;
29940;SDS011;16801;53.562;10.038;2023-05-19T10:24:43;8.98;;;2.20;;
29940;SDS011;16801;53.562;10.038;2023-05-19T10:28:06;2.08;;;1.90;;
29940;SDS011;16801;53.562;10.038;2023-05-19T10:31:32;1.42;;;1.30;;
29940;SDS011;16801;53.562;10.038;2023-05-19T10:35:04;1.50;;;1.38;;
29940;SDS011;16801;53.562;10.038;2023-05-19T10:38:38;3.22;;;1.10;;
29940;SDS011;16801;53.562;10.038;2023-05-19T10:42:02;1.77;;;1.40;;
29940;SDS011;16801;53.562;10.038;2023-05-19T10:45:33;2.17;;;1.50;;
29940;SDS011;16801;53.562;10.038;2023-05-19T10:49:02;3.42;;;1.67;;
29940;SDS011;16801;53.562;10.038;2023-05-19T10:52:23;6.43;;;1.70;;
29940;SDS011;16801;53.562;10.038;2023-05-19T10:55:51;4.47;;;1.63;;
29940;SDS011;16801;53.562;10.038;2023-05-19T10:59:29;1.38;;;1.00;;
29940;SDS011;16801;53.562;10.038;2023-05-19T11:02:51;3.35;;;1.20;;
29940;SDS011;16801;53.562;10.038;2023-05-19T11:06:19;2.10;;;1.42;;
29940;SDS011;16801;53.562;10.038;2023-05-19T11:09:48;1.80;;;1.20;;
29940;SDS011;16801;53.562;10.038;2023-05-19T11:13:17;3.42;;;2.50;;
29940;SDS011;16801;53.562;10.038;2023-05-19T11:16:39;2.05;;;1.50;;
29940;SDS011;16801;53.562;10.038;2023-05-19T11:20:01;2.17;;;0.90;;
29940;SDS011;16801;53.562;10.038;2023-05-19T11:23:26;1.88;;;1.00;;
29940;SDS011;16801;53.562;10.038;2023-05-19T11:26:47;4.13;;;2.30;;
29940;SDS011;16801;53.562;10.038;2023-05-19T11:30:08;1.95;;;1.15;;
29940;SDS011;16801;53.562;10.038;2023-05-19T11:33:33;1.42;;;1.33;;
29940;SDS011;16801;53.562;10.038;2023-05-19T11:36:54;1.40;;;1.00;;
29940;SDS011;16801;53.562;10.038;2023-05-19T11:40:18;3.58;;;1.48;;
29940;SDS011;16801;53.562;10.038;2023-05-19T11:43:41;1.15;;;1.02;;
29940;SDS011;16801;53.562;10.038;2023-05-19T11:47:01;3.90;;;1.35;;
29940;SDS011;16801;53.562;10.038;2023-05-19T11:50:23;1.63;;;1.23;;
29940;SDS011;16801;53.562;10.038;2023-05-19T11:53:44;1.52;;;0.77;;
29940;SDS011;16801;53.562;10.038;2023-05-19T11:57:09;1.85;;;1.58;;
29940;SDS011;16801;53.562;10.038;2023-05-19T12:00:33;2.60;;;1.30;;
29940;SDS011;16801;53.562;10.038;2023-05-19T12:03:56;2.65;;;1.20;;
29940;SDS011;16801;53.562;10.038;2023-05-19T12:07:17;4.93;;;1.98;;
29940;SDS011;16801;53.562;10.038;2023-05-19T12:10:41;1.55;;;0.90;;
29940;SDS011;16801;53.562;10.038;2023-05-19T12:14:03;1.30;;;0.80;;
29940;SDS011;16801;53.562;10.038;2023-05-19T12:17:25;1.88;;;1.17;;
29940;SDS011;16801;53.562;10.038;2023-05-19T12:20:46;1.73;;;1.00;;
29940;SDS011;16801;53.562;10.038;2023-05-19T12:24:07;5.68;;;2.35;;
29940;SDS011;16801;53.562;10.038;2023-05-19T12:27:28;0.80;;;0.80;;
29940;SDS011;16801;53.562;10.038;2023-05-19T12:30:51;3.67;;;1.20;;
29940;SDS011;16801;53.562;10.038;2023-05-19T12:34:12;4.18;;;0.90;;
29940;SDS011;16801;53.562;10.038;2023-05-19T12:37:35;1.60;;;1.00;;
29940;SDS011;16801;53.562;10.038;2023-05-19T12:41:00;3.53;;;1.40;;
29940;SDS011;16801;53.562;10.038;2023-05-19T12:44:21;1.52;;;1.35;;
29940;SDS011;16801;53.562;10.038;2023-05-19T12:47:46;1.65;;;1.27;;
29940;SDS011;16801;53.562;10.038;2023-05-19T12:51:07;2.25;;;1.60;;
29940;SDS011;16801;53.562;10.038;2023-05-19T12:54:31;1.50;;;1.10;;
29940;SDS011;16801;53.562;10.038;2023-05-19T12:57:53;1.10;;;1.00;;
29940;SDS011;16801;53.562;10.038;2023-05-19T13:01:17;1.92;;;1.42;;
29940;SDS011;16801;53.562;10.038;2023-05-19T13:04:39;3.03;;;1.23;;
29940;SDS011;16801;53.562;10.038;2023-05-19T13:08:00;1.10;;;0.80;;
29940;SDS011;16801;53.562;10.038;2023-05-19T13:11:24;2.75;;;1.35;;
29940;SDS011;16801;53.562;10.038;2023-05-19T13:14:45;2.80;;;1.27;;
29940;SDS011;16801;53.562;10.038;2023-05-19T13:18:06;2.58;;;1.17;;
29940;SDS011;16801;53.562;10.038;2023-05-19T13:21:30;5.60;;;0.93;;
29940;SDS011;16801;53.562;10.038;2023-05-19T13:24:52;1.17;;;1.00;;
29940;SDS011;16801;53.562;10.038;2023-05-19T13:28:13;1.10;;;1.00;;
29940;SDS011;16801;53.562;10.038;2023-05-19T13:31:33;2.38;;;1.52;;
29940;SDS011;16801;53.562;10.038;2023-05-19T13:34:54;0.77;;;0.77;;
29940;SDS011;16801;53.562;10.038;2023-05-19T13:38:17;2.00;;;1.20;;
29940;SDS011;16801;53.562;10.038;2023-05-19T13:41:38;2.70;;;2.13;;
29940;SDS011;16801;53.562;10.038;2023-05-19T13:44:58;3.25;;;1.15;;
29940;SDS011;16801;53.562;10.038;2023-05-19T13:48:20;2.00;;;1.40;;
29940;SDS011;16801;53.562;10.038;2023-05-19T13:51:41;2.08;;;1.75;;
29940;SDS011;16801;53.562;10.038;2023-05-19T13:55:04;1.30;;;0.80;;
29940;SDS011;16801;53.562;10.038;2023-05-19T13:58:26;1.10;;;1.00;;
29940;SDS011;16801;53.562;10.038;2023-05-19T14:01:47;3.92;;;1.08;;
29940;SDS011;16801;53.562;10.038;2023-05-19T14:05:08;2.53;;;1.15;;
29940;SDS011;16801;53.562;10.038;2023-05-19T14:08:29;2.00;;;1.85;;
29940;SDS011;16801;53.562;10.038;2023-05-19T14:11:52;2.60;;;1.38;;
29940;SDS011;16801;53.562;10.038;2023-05-19T14:15:12;2.00;;;1.42;;
29940;SDS011;16801;53.562;10.038;2023-05-19T14:18:34;1.40;;;1.10;;
29940;SDS011;16801;53.562;10.038;2023-05-19T14:21:55;1.20;;;1.10;;
29940;SDS011;16801;53.562;10.038;2023-05-19T14:25:15;1.92;;;1.55;;
29940;SDS011;16801;53.562;10.038;2023-05-19T14:28:38;2.55;;;1.70;;
29940;SDS011;16801;53.562;10.038;2023-05-19T14:31:59;4.60;;;1.98;;
29940;SDS011;16801;53.562;10.038;2023-05-19T14:35:21;2.50;;;1.48;;
29940;SDS011;16801;53.562;10.038;2023-05-19T14:38:41;1.10;;;1.00;;
29940;SDS011;16801;53.562;10.038;2023-05-19T14:42:02;5.78;;;2.03;;
29940;SDS011;16801;53.562;10.038;2023-05-19T14:45:25;5.88;;;1.17;;
29940;SDS011;16801;53.562;10.038;2023-05-19T14:48:45;2.08;;;1.98;;
29940;SDS011;16801;53.562;10.038;2023-05-19T14:52:06;1.60;;;1.20;;
29940;SDS011;16801;53.562;10.038;2023-05-19T14:55:27;2.72;;;1.20;;
29940;SDS011;16801;53.562;10.038;2023-05-19T14:58:48;1.00;;;0.88;;
29940;SDS011;16801;53.562;10.038;2023-05-19T15:02:11;1.00;;;1.00;;
29940;SDS011;16801;53.562;10.038;2023-05-19T15:05:31;2.05;;;1.67;;
29940;SDS011;16801;53.562;10.038;2023-05-19T15:08:52;2.95;;;0.95;;
29940;SDS011;16801;53.562;10.038;2023-05-19T15:12:13;2.35;;;1.15;;
29940;SDS011;16801;53.562;10.038;2023-05-19T15:15:34;1.40;;;0.90;;
29940;SDS011;16801;53.562;10.038;2023-05-19T15:18:56;1.15;;;0.95;;
29940;SDS011;16801;53.562;10.038;2023-05-19T15:22:17;2.38;;;1.10;;
29940;SDS011;16801;53.562;10.038;2023-05-19T15:25:38;3.30;;;1.67;;
29940;SDS011;16801;53.562;10.038;2023-05-19T15:28:59;0.80;;;0.80;;
29940;SDS011;16801;53.562;10.038;2023-05-19T15:32:20;1.27;;;1.05;;
29940;SDS011;16801;53.562;10.038;2023-05-19T15:35:42;1.33;;;1.10;;
29940;SDS011;16801;53.562;10.038;2023-05-19T15:39:03;1.88;;;0.75;;
29940;SDS011;16801;53.562;10.038;2023-05-19T15:42:24;2.25;;;0.93;;
29940;SDS011;16801;53.562;10.038;2023-05-19T15:45:45;1.48;;;1.13;;
29940;SDS011;16801;53.562;10.038;2023-05-19T15:49:06;1.02;;;0.95;;
29940;SDS011;16801;53.562;10.038;2023-05-19T15:52:28;1.55;;;1.45;;
29940;SDS011;16801;53.562;10.038;2023-05-19T15:55:49;3.15;;;2.05;;
29940;SDS011;16801;53.562;10.038;2023-05-19T15:59:10;2.88;;;2.13;;
29940;SDS011;16801;53.562;10.038;2023-05-19T16:02:31;3.03;;;1.88;;
29940;SDS011;16801;53.562;10.038;2023-05-19T16:05:52;2.42;;;1.60;;
29940;SDS011;16801;53.562;10.038;2023-05-19T16:09:15;2.20;;;1.55;;
29940;SDS011;16801;53.562;10.038;2023-05-19T16:12:38;1.70;;;1.60;;
29940;SDS011;16801;53.562;10.038;2023-05-19T16:15:59;2.15;;;1.95;;
29940;SDS011;16801;53.562;10.038;2023-05-19T16:19:20;2.05;;;1.73;;
29940;SDS011;16801;53.562;10.038;2023-05-19T16:22:41;2.42;;;1.73;;
29940;SDS011;16801;53.562;10.038;2023-05-19T16:26:04;1.98;;;1.30;;
29940;SDS011;16801;53.562;10.038;2023-05-19T16:29:24;1.02;;;0.90;;
29940;SDS011;16801;53.562;10.038;2023-05-19T16:32:45;2.35;;;1.83;;
29940;SDS011;16801;53.562;10.038;2023-05-19T16:36:06;3.25;;;1.35;;
29940;SDS011;16801;53.562;10.038;2023-05-19T16:39:27;1.67;;;1.50;;
29940;SDS011;16801;53.562;10.038;2023-05-19T16:42:49;2.53;;;1.52;;
29940;SDS011;16801;53.562;10.038;2023-05-19T16:46:16;2.35;;;1.65;;
29940;SDS011;16801;53.562;10.038;2023-05-19T16:49:42;1.33;;;1.23;;
29940;SDS011;16801;53.562;10.038;2023-05-19T16:53:03;2.65;;;1.38;;
29940;SDS011;16801;53.562;10.038;2023-05-19T16:56:24;1.70;;;1.42;;
29940;SDS011;16801;53.562;10.038;2023-05-19T16:59:46;1.35;;;1.05;;
29940;SDS011;16801;53.562;10.038;2023-05-19T17:03:07;1.60;;;1.48;;
29940;SDS011;16801;53.562;10.038;2023-05-19T17:06:28;1.75;;;1.17;;
29940;SDS011;16801;53.562;10.038;2023-05-19T17:09:49;2.95;;;2.05;;
29940;SDS011;16801;53.562;10.038;2023-05-19T17:13:10;1.10;;;0.85;;
29940;SDS011;16801;53.562;10.038;2023-05-19T17:16:33;1.83;;;1.50;;
29940;SDS011;16801;53.562;10.038;2023-05-19T17:19:54;1.38;;;1.27;;
29940;SDS011;16801;53.562;10.038;2023-05-19T17:23:15;2.22;;;1.30;;
29940;SDS011;16801;53.562;10.038;2023-05-19T17:26:36;8.30;;;2.13;;
29940;SDS011;16801;53.562;10.038;2023-05-19T17:29:57;1.80;;;1.70;;
29940;SDS011;16801;53.562;10.038;2023-05-19T17:33:19;1.85;;;1.33;;
29940;SDS011;16801;53.562;10.038;2023-05-19T17:36:40;2.17;;;1.20;;
29940;SDS011;16801;53.562;10.038;2023-05-19T17:40:01;1.40;;;1.13;;
29940;SDS011;16801;53.562;10.038;2023-05-19T17:43:21;0.80;;;0.75;;
29940;SDS011;16801;53.562;10.038;2023-05-19T17:46:42;1.77;;;1.65;;
29940;SDS011;16801;53.562;10.038;2023-05-19T17:50:05;3.08;;;1.95;;
29940;SDS011;16801;53.562;10.038;2023-05-19T17:53:27;1.92;;;0.80;;
29940;SDS011;16801;53.562;10.038;2023-05-19T17:56:48;1.00;;;1.00;;
29940;SDS011;16801;53.562;10.038;2023-05-19T18:00:10;0.98;;;0.90;;
29940;SDS011;16801;53.562;10.038;2023-05-19T18:03:33;1.52;;;1.08;;
29940;SDS011;16801;53.562;10.038;2023-05-19T18:06:55;2.53;;;1.08;;
29940;SDS011;16801;53.562;10.038;2023-05-19T18:10:18;1.73;;;1.00;;
29940;SDS011;16801;53.562;10.038;2023-05-19T18:13:39;1.17;;;0.98;;
29940;SDS011;16801;53.562;10.038;2023-05-19T18:17:01;2.38;;;1.75;;
29940;SDS011;16801;53.562;10.038;2023-05-19T18:20:21;1.63;;;1.52;;
29940;SDS011;16801;53.562;10.038;2023-05-19T18:23:44;1.38;;;1.27;;
29940;SDS011;16801;53.562;10.038;2023-05-19T18:27:06;3.70;;;1.85;;
29940;SDS011;16801;53.562;10.038;2023-05-19T18:30:27;2.22;;;1.20;;
29940;SDS011;16801;53.562;10.038;2023-05-19T18:33:48;1.90;;;0.93;;
29940;SDS011;16801;53.562;10.038;2023-05-19T18:37:08;1.65;;;1.55;;
29940;SDS011;16801;53.562;10.038;2023-05-19T18:40:30;2.30;;;1.38;;
29940;SDS011;16801;53.562;10.038;2023-05-19T18:43:51;1.25;;;0.90;;
29940;SDS011;16801;53.562;10.038;2023-05-19T18:47:13;1.02;;;0.70;;
29940;SDS011;16801;53.562;10.038;2023-05-19T18:50:35;1.70;;;0.95;;
29940;SDS011;16801;53.562;10.038;2023-05-19T18:53:55;1.92;;;1.38;;
29940;SDS011;16801;53.562;10.038;2023-05-19T18:57:17;1.10;;;0.65;;
29940;SDS011;16801;53.562;10.038;2023-05-19T19:00:39;1.88;;;0.98;;
29940;SDS011;16801;53.562;10.038;2023-05-19T19:03:59;4.10;;;0.93;;
29940;SDS011;16801;53.562;10.038;2023-05-19T19:07:22;0.80;;;0.80;;
29940;SDS011;16801;53.562;10.038;2023-05-19T19:10:43;0.90;;;0.90;;
29940;SDS011;16801;53.562;10.038;2023-05-19T19:14:05;2.25;;;1.20;;
29940;SDS011;16801;53.562;10.038;2023-05-19T19:17:26;3.35;;;1.60;;
29940;SDS011;16801;53.562;10.038;2023-05-19T19:20:47;2.00;;;1.13;;
29940;SDS011;16801;53.562;10.038;2023-05-19T19:24:08;1.42;;;1.33;;
29940;SDS011;16801;53.562;10.038;2023-05-19T19:27:28;0.85;;;0.85;;
29940;SDS011;16801;53.562;10.038;2023-05-19T19:30:53;1.70;;;1.30;;
29940;SDS011;16801;53.562;10.038;2023-05-19T19:34:14;2.25;;;1.20;;
29940;SDS011;16801;53.562;10.038;2023-05-19T19:37:38;1.10;;;1.00;;
29940;SDS011;16801;53.562;10.038;2023-05-19T19:40:58;2.10;;;1.10;;
29940;SDS011;16801;53.562;10.038;2023-05-19T19:44:19;0.85;;;0.85;;
29940;SDS011;16801;53.562;10.038;2023-05-19T19:47:42;1.08;;;1.00;;
29940;SDS011;16801;53.562;10.038;2023-05-19T19:51:03;2.97;;;1.10;;
29940;SDS011;16801;53.562;10.038;2023-05-19T19:54:24;2.67;;;1.30;;
29940;SDS011;16801;53.562;10.038;2023-05-19T19:57:45;1.67;;;1.47;;
29940;SDS011;16801;53.562;10.038;2023-05-19T20:01:07;0.87;;;0.87;;
29940;SDS011;16801;53.562;10.038;2023-05-19T20:04:29;1.48;;;1.42;;